Thousand Island Park, New York
Current Conditions -  °F | °C
As of 4:56 AM on Friday 21 Nov 2014 (Local Time) from KART Reporting Station
Few Clouds Few Clouds  
Wind Chill: -7°   Ceiling: Unl
Heat Index: -7°   Visibility: 10mi
Dew Point: -11°   Wind: 0mph
Humidity: 71%   Direction: NA
Pressure: 30.06"   Gusts: NA
Location:  44.29°N, 76.03°W
Report Text: KART 210956Z AUTO 00000KT 10SM FEW090 M07/M11 A3006 RMK AO2 SLP187 T10671111
Loading
Personal Weather Stations






























Interactive Weather Map New forecast layout! Learn more

10-Day Weather Forecast

Advertisements
Track Severe Weather on mobile